Time;durP1;ratioP1;P1;durP2;ratioP2;P2;SDS_P1;SDS_P2;PMS_P1;PMS_P2;Temp;Humidity;BMP_temperature;BMP_pressure;BME280_temperature;BME280_humidity;BME280_pressure;Samples;Min_cycle;Max_cycle;Signal;HPM_P1;HPM_P2
2022/01/11 00:01:43;;;;;;;42.55;17.65;;;;;;;3.15;82.74;99163.59;1695254;83;21089;-89
2022/01/11 00:04:15;;;;;;;49.42;19.07;;;;;;;3.15;82.61;99163.59;1696813;82;21000;-85
2022/01/11 00:06:48;;;;;;;44.05;17.92;;;;;;;3.19;82.57;99164.89;1686995;82;21179;-89
2022/01/11 00:09:33;;;;;;;40.52;17.80;;;;;;;3.23;82.54;99172.20;1678969;81;21085;-89
2022/01/11 00:11:51;;;;;;;50.60;19.12;;;;;;;3.25;82.40;99174.78;1679649;81;21069;-85
2022/01/11 00:14:18;;;;;;;44.48;18.95;;;;;;;3.28;82.50;99179.92;1653403;81;21089;-89
2022/01/11 00:16:48;;;;;;;44.27;17.55;;;;;;;3.29;82.19;99174.80;1650187;83;22611;-90
2022/01/11 00:19:15;;;;;;;49.48;20.43;;;;;;;3.29;82.18;99179.94;1675725;84;21017;-90
2022/01/11 00:21:48;;;;;;;53.68;21.57;;;;;;;3.28;82.28;99182.09;1675540;86;21391;-89
2022/01/11 00:24:32;;;;;;;49.45;19.65;;;;;;;3.28;82.46;99179.92;1655533;82;21075;-89
2022/01/11 00:27:05;;;;;;;53.52;20.40;;;;;;;3.31;82.54;99184.66;1642830;85;21028;-86
2022/01/11 00:29:36;;;;;;;52.20;19.43;;;;;;;3.31;82.48;99183.38;1644452;86;21088;-86
2022/01/11 00:32:14;;;;;;;47.33;18.77;;;;;;;3.30;82.47;99184.64;1654459;81;21854;-88
2022/01/11 00:34:48;;;;;;;51.15;19.70;;;;;;;3.33;82.27;99188.53;1670882;81;21122;-89
2022/01/11 00:37:08;;;;;;;50.90;18.65;;;;;;;3.29;82.10;99182.94;1705064;83;21071;-88
2022/01/11 00:39:35;;;;;;;43.13;18.60;;;;;;;3.26;82.16;99183.76;1698966;83;21595;-88
2022/01/11 00:42:03;;;;;;;49.23;17.75;;;;;;;3.21;82.14;99186.74;1676075;86;21035;-90
2022/01/11 00:44:31;;;;;;;47.78;19.42;;;;;;;3.18;82.29;99183.73;1694668;84;21059;-89
2022/01/11 00:46:59;;;;;;;43.92;18.50;;;;;;;3.18;82.34;99182.86;1643798;83;21724;-89
2022/01/11 00:49:27;;;;;;;52.95;19.92;;;;;;;3.17;82.38;99183.72;1657928;86;21666;-89
2022/01/11 00:51:56;;;;;;;51.70;20.10;;;;;;;3.13;82.56;99184.13;1682990;80;21059;-89
2022/01/11 00:54:26;;;;;;;52.45;21.30;;;;;;;3.13;82.71;99182.84;1721600;81;21181;-89
2022/01/11 00:56:54;;;;;;;53.33;20.88;;;;;;;3.15;82.77;99186.70;1737695;80;21018;-85
2022/01/11 00:59:25;;;;;;;57.43;20.05;;;;;;;3.10;82.88;99189.66;1728732;80;21093;-89
2022/01/11 01:01:52;;;;;;;52.10;19.67;;;;;;;3.08;83.01;99194.78;1776075;78;21010;-85
2022/01/11 01:04:19;;;;;;;47.27;19.73;;;;;;;3.01;82.78;99189.62;1775364;78;21281;-86
2022/01/11 01:06:47;;;;;;;47.75;19.57;;;;;;;2.97;83.26;99190.86;1746466;79;21061;-90
2022/01/11 01:09:15;;;;;;;48.10;20.50;;;;;;;2.95;83.58;99194.28;1662111;84;21041;-90
2022/01/11 01:11:45;;;;;;;41.68;18.30;;;;;;;2.95;83.48;99192.56;1690644;80;21288;-85
2022/01/11 01:14:16;;;;;;;45.48;18.80;;;;;;;2.92;83.60;99195.53;1686012;81;21101;-88
2022/01/11 01:16:45;;;;;;;47.55;17.92;;;;;;;2.87;83.75;99189.09;1656929;82;21065;-90
2022/01/11 01:19:33;;;;;;;43.17;18.80;;;;;;;2.88;83.20;99193.36;1655953;86;21268;-89
2022/01/11 01:22:00;;;;;;;47.93;19.70;;;;;;;2.82;83.40;99195.88;1632236;88;21097;-89
2022/01/11 01:24:28;;;;;;;41.40;17.73;;;;;;;2.75;83.54;99202.69;1614762;88;21045;-90
2022/01/11 01:26:56;;;;;;;46.42;18.48;;;;;;;2.73;83.94;99201.81;1642458;84;21059;-85
2022/01/11 01:29:23;;;;;;;47.80;18.40;;;;;;;2.74;83.73;99196.25;1657162;83;21104;-86
2022/01/11 01:31:51;;;;;;;43.68;19.02;;;;;;;2.74;83.88;99200.95;1639325;87;21012;-86
2022/01/11 01:34:21;;;;;;;44.10;17.67;;;;;;;2.70;84.24;99204.77;1661270;84;21072;-85
2022/01/11 01:36:49;;;;;;;42.73;18.40;;;;;;;2.64;84.44;99204.30;1641430;84;21029;-85
2022/01/11 01:39:16;;;;;;;45.23;17.25;;;;;;;2.66;84.07;99205.16;1641824;84;21145;-86
2022/01/11 01:41:46;;;;;;;46.20;18.57;;;;;;;2.66;84.13;99205.59;1657242;83;21044;-85
2022/01/11 01:44:14;;;;;;;46.95;18.37;;;;;;;2.67;83.78;99204.33;1660930;82;21085;-85
2022/01/11 01:46:41;;;;;;;45.17;18.10;;;;;;;2.64;84.23;99213.71;1642112;84;21353;-82
2022/01/11 01:49:16;;;;;;;44.35;19.12;;;;;;;2.62;84.60;99214.13;1660397;82;21062;-85
2022/01/11 01:51:41;;;;;;;46.98;18.45;;;;;;;2.63;84.23;99217.99;1677958;82;21100;-88
2022/01/11 01:54:09;;;;;;;46.90;19.87;;;;;;;2.62;84.21;99221.39;1705218;83;21230;-81
2022/01/11 01:56:37;;;;;;;52.45;19.15;;;;;;;2.63;84.40;99224.84;1699982;83;21266;-83
2022/01/11 01:59:06;;;;;;;51.77;19.82;;;;;;;2.64;84.45;99223.98;1710267;80;20995;-82
2022/01/11 02:01:38;;;;;;;48.20;18.32;;;;;;;2.66;84.24;99222.28;1708614;83;21011;-84
2022/01/11 02:04:03;;;;;;;47.15;18.75;;;;;;;2.71;84.27;99227.05;1696265;82;20989;-83
2022/01/11 02:06:31;;;;;;;44.35;18.23;;;;;;;2.71;84.78;99230.90;1715867;83;21014;-82
2022/01/11 02:08:58;;;;;;;45.12;18.65;;;;;;;2.71;84.21;99224.05;1674390;85;21041;-86
2022/01/11 02:11:26;;;;;;;40.65;17.15;;;;;;;2.74;84.41;99236.89;1690531;84;21028;-84
2022/01/11 02:13:56;;;;;;;43.42;17.65;;;;;;;2.78;84.35;99235.22;1678584;84;21049;-84
2022/01/11 02:16:24;;;;;;;43.08;17.65;;;;;;;2.77;84.10;99226.66;1708131;80;21107;-85
2022/01/11 02:18:54;;;;;;;43.80;17.87;;;;;;;2.80;84.30;99221.97;1684507;81;21194;-88
2022/01/11 02:21:23;;;;;;;48.38;17.85;;;;;;;2.85;84.38;99229.73;1640912;81;21088;-90
2022/01/11 02:23:51;;;;;;;42.38;17.87;;;;;;;2.90;84.25;99227.61;1665932;86;21030;-90
2022/01/11 02:26:21;;;;;;;44.35;17.82;;;;;;;2.94;84.19;99234.48;1694774;80;21107;-89
2022/01/11 02:28:50;;;;;;;47.58;19.23;;;;;;;2.95;84.01;99231.09;1684648;82;21072;-89
2022/01/11 02:31:19;;;;;;;38.45;17.40;;;;;;;2.96;83.87;99243.09;1668776;81;21104;-84
2022/01/11 02:33:52;;;;;;;47.45;18.30;;;;;;;2.96;83.86;99240.53;1675353;81;21108;-89
2022/01/11 02:36:39;;;;;;;35.55;15.08;;;;;;;3.01;83.86;99239.70;1651772;85;21101;-85
2022/01/11 02:39:27;;;;;;;31.68;14.53;;;;;;;3.01;83.64;99242.27;1673920;83;21077;-88
2022/01/11 02:41:58;;;;;;;36.88;15.55;;;;;;;3.03;83.23;99242.71;1723090;81;21210;-87
2022/01/11 02:44:30;;;;;;;41.75;15.98;;;;;;;2.96;83.23;99237.96;1719330;80;21191;-87
2022/01/11 02:46:58;;;;;;;38.53;15.90;;;;;;;2.97;83.09;99241.38;1667939;82;21069;-86
2022/01/11 02:49:27;;;;;;;36.55;15.13;;;;;;;2.93;83.16;99239.64;1667274;82;21356;-86
2022/01/11 02:51:57;;;;;;;42.10;15.58;;;;;;;2.96;83.09;99241.81;1672066;80;21047;-85
2022/01/11 02:54:25;;;;;;;47.00;15.78;;;;;;;2.92;83.14;99241.33;1695255;80;21609;-85
2022/01/11 02:56:57;;;;;;;37.33;16.10;;;;;;;2.95;83.04;99246.50;1693131;80;21084;-85
2022/01/11 02:59:27;;;;;;;37.85;16.60;;;;;;;2.96;83.13;99250.80;1672528;80;21069;-88
2022/01/11 03:01:54;;;;;;;39.90;15.20;;;;;;;3.00;83.02;99250.38;1703312;83;21038;-90
2022/01/11 03:04:28;;;;;;;32.83;14.75;;;;;;;3.03;82.97;99253.41;1693715;80;21149;-88
2022/01/11 03:06:53;;;;;;;32.98;13.55;;;;;;;3.07;82.81;99256.44;1674256;80;21163;-89
2022/01/11 03:09:22;;;;;;;36.20;14.33;;;;;;;3.06;82.71;99252.99;1664831;80;21115;-86
2022/01/11 03:11:50;;;;;;;30.82;14.13;;;;;;;3.10;82.76;99257.73;1696590;82;21044;-89
2022/01/11 03:14:17;;;;;;;37.33;13.38;;;;;;;3.09;82.57;99263.73;1700783;83;21575;-87
2022/01/11 03:16:44;;;;;;;33.08;12.95;;;;;;;3.08;82.57;99262.00;1672604;84;21000;-89
2022/01/11 03:19:12;;;;;;;32.08;13.45;;;;;;;3.06;82.27;99264.98;1687646;83;21071;-88
2022/01/11 03:21:40;;;;;;;33.33;12.95;;;;;;;3.03;82.36;99268.39;1653852;80;21151;-89
2022/01/11 03:24:08;;;;;;;36.50;13.75;;;;;;;3.03;82.56;99267.55;1688423;84;21567;-89
2022/01/11 03:26:35;;;;;;;31.97;12.80;;;;;;;3.05;82.49;99267.98;1681027;85;21529;-87
2022/01/11 03:29:03;;;;;;;26.82;11.83;;;;;;;3.04;82.36;99270.53;1668451;82;21179;-86
2022/01/11 03:31:31;;;;;;;33.80;12.55;;;;;;;3.02;82.11;99270.52;1662785;81;21110;-87
2022/01/11 03:33:59;;;;;;;31.40;12.65;;;;;;;3.03;82.30;99272.68;1666278;84;21030;-87
2022/01/11 03:36:26;;;;;;;29.27;13.08;;;;;;;3.04;82.24;99273.10;1700821;84;21534;-91
2022/01/11 03:38:54;;;;;;;26.33;12.15;;;;;;;3.01;82.27;99273.94;1685551;84;21030;-91
2022/01/11 03:41:21;;;;;;;32.73;13.05;;;;;;;3.02;82.35;99272.23;1686643;84;21097;-91
2022/01/11 03:43:49;;;;;;;30.30;13.55;;;;;;;3.06;82.37;99273.97;1676934;84;21042;-91
2022/01/11 03:46:18;;;;;;;27.73;11.57;;;;;;;3.07;82.32;99279.56;1668904;81;21168;-90
2022/01/11 03:48:46;;;;;;;29.77;11.93;;;;;;;3.08;82.25;99277.41;1727630;83;21062;-90
2022/01/11 03:51:13;;;;;;;30.48;12.47;;;;;;;3.05;81.74;99282.11;1721524;82;21231;-89
2022/01/11 03:53:55;;;;;;;34.50;13.18;;;;;;;3.08;82.04;99285.97;1679204;82;21061;-88
2022/01/11 03:56:22;;;;;;;35.58;13.80;;;;;;;3.07;82.00;99286.84;1747755;81;21033;-89
2022/01/11 03:58:53;;;;;;;31.62;13.43;;;;;;;3.09;81.97;99288.14;1757878;78;21080;-86
2022/01/11 04:01:23;;;;;;;29.18;11.75;;;;;;;3.12;82.15;99294.56;1702637;77;21075;-88
2022/01/11 04:03:54;;;;;;;30.50;12.85;;;;;;;3.12;81.77;99294.56;1707555;80;21033;-86
2022/01/11 04:06:22;;;;;;;27.60;11.33;;;;;;;3.14;81.80;99299.30;1735683;80;21115;-84
2022/01/11 04:08:49;;;;;;;31.40;13.15;;;;;;;3.18;82.06;99297.19;1738551;80;21450;-88
2022/01/11 04:11:17;;;;;;;33.67;13.40;;;;;;;3.19;81.51;99295.06;1764201;81;21020;-85
2022/01/11 04:13:45;;;;;;;32.55;12.70;;;;;;;3.22;81.81;99296.36;1763736;81;21044;-85
2022/01/11 04:16:15;;;;;;;29.35;12.43;;;;;;;3.23;81.52;99294.23;1750836;80;22901;-89
2022/01/11 04:18:42;;;;;;;32.38;12.95;;;;;;;3.22;81.42;99296.79;1691797;82;21119;-88
2022/01/11 04:21:10;;;;;;;31.60;14.00;;;;;;;3.23;81.68;99298.09;1695879;84;21545;-88
2022/01/11 04:23:39;;;;;;;53.60;25.62;;;;;;;3.23;81.53;99300.66;1684489;85;21043;-89
2022/01/11 04:26:06;;;;;;;48.33;24.70;;;;;;;3.20;81.52;99301.91;1686014;81;21167;-89
2022/01/11 04:28:36;;;;;;;41.28;19.27;;;;;;;3.14;81.68;99304.03;1670996;83;21093;-88
2022/01/11 04:31:06;;;;;;;31.45;14.65;;;;;;;3.13;81.80;99304.86;1697885;81;21334;-84
2022/01/11 04:33:35;;;;;;;31.30;14.15;;;;;;;3.14;81.84;99307.88;1710315;82;21028;-89
2022/01/11 04:36:03;;;;;;;35.70;14.55;;;;;;;3.13;81.89;99306.15;1717703;83;21004;-87
2022/01/11 04:38:32;;;;;;;35.48;14.90;;;;;;;3.13;81.74;99311.72;1687735;81;21204;-84
2022/01/11 04:41:00;;;;;;;42.65;19.55;;;;;;;3.10;81.72;99308.68;1712230;81;21046;-86
2022/01/11 04:43:32;;;;;;;29.55;13.15;;;;;;;3.07;81.75;99309.95;1719312;79;21294;-86
2022/01/11 04:46:00;;;;;;;30.72;13.48;;;;;;;3.05;81.78;99312.94;1753547;80;21032;-85
2022/01/11 04:48:32;;;;;;;35.13;13.35;;;;;;;3.03;82.00;99310.77;1720858;79;21050;-88
2022/01/11 04:51:01;;;;;;;28.80;12.28;;;;;;;3.03;81.93;99317.20;1718534;79;21057;-90
2022/01/11 04:53:29;;;;;;;34.80;13.35;;;;;;;3.04;81.73;99316.34;1682994;80;21090;-84
2022/01/11 04:56:00;;;;;;;30.82;13.22;;;;;;;2.98;81.90;99317.56;1698376;81;21077;-87
2022/01/11 04:58:28;;;;;;;29.40;12.95;;;;;;;2.94;82.01;99326.95;1661331;85;21048;-83
2022/01/11 05:00:56;;;;;;;31.48;14.10;;;;;;;2.92;82.30;99332.92;1659118;86;21072;-82
2022/01/11 05:03:25;;;;;;;34.45;13.65;;;;;;;2.99;81.93;99341.14;1654248;85;21094;-84
2022/01/11 05:05:54;;;;;;;35.78;14.15;;;;;;;2.90;82.15;99332.90;1673433;82;21080;-87
2022/01/11 05:08:22;;;;;;;28.35;12.88;;;;;;;2.86;82.39;99331.58;1667184;83;21165;-88
2022/01/11 05:10:51;;;;;;;36.83;14.95;;;;;;;2.89;82.30;99342.75;1646165;86;21075;-89
2022/01/11 05:13:20;;;;;;;33.10;13.30;;;;;;;2.90;82.79;99339.75;1654796;83;21093;-89
2022/01/11 05:15:49;;;;;;;39.18;15.48;;;;;;;2.94;82.37;99342.78;1659943;83;21060;-90
2022/01/11 05:18:17;;;;;;;42.30;17.45;;;;;;;2.93;82.59;99353.92;1676200;85;21048;-89
2022/01/11 05:20:46;;;;;;;54.08;17.17;;;;;;;2.95;82.54;99350.52;1674802;84;21084;-82
2022/01/11 05:23:16;;;;;;;48.83;16.80;;;;;;;2.94;82.69;99349.20;1673308;84;21033;-84
2022/01/11 05:25:44;;;;;;;37.20;15.47;;;;;;;2.97;82.70;99356.95;1653636;84;21017;-83
2022/01/11 05:28:12;;;;;;;42.93;16.27;;;;;;;2.97;82.74;99354.39;1650100;84;21109;-89
2022/01/11 05:30:40;;;;;;;32.05;14.03;;;;;;;3.01;82.60;99360.42;1651450;81;21081;-84
2022/01/11 05:33:08;;;;;;;37.65;14.75;;;;;;;2.95;82.70;99368.92;1683967;81;21175;-89
2022/01/11 05:35:35;;;;;;;37.38;16.30;;;;;;;2.94;82.96;99365.90;1713103;83;21540;-90
2022/01/11 05:38:03;;;;;;;40.70;15.60;;;;;;;2.93;82.95;99370.19;1732203;82;21022;-89
2022/01/11 05:40:30;;;;;;;41.88;15.30;;;;;;;2.92;82.96;99368.45;1725807;83;21021;-85
2022/01/11 05:43:00;;;;;;;42.25;17.95;;;;;;;2.95;82.98;99372.34;1739711;80;21109;-84
2022/01/11 05:45:27;;;;;;;46.50;16.73;;;;;;;2.93;83.09;99373.19;1740492;80;21105;-83
2022/01/11 05:47:55;;;;;;;43.90;16.50;;;;;;;2.95;82.87;99376.20;1714554;80;21047;-83
2022/01/11 05:50:23;;;;;;;38.50;15.85;;;;;;;2.94;82.83;99380.02;1726033;81;21063;-84
2022/01/11 05:52:51;;;;;;;38.50;15.08;;;;;;;2.94;82.81;99383.45;1669114;85;21066;-83
2022/01/11 05:55:19;;;;;;;47.45;16.62;;;;;;;2.90;83.16;99391.97;1677772;84;21017;-85
2022/01/11 05:57:47;;;;;;;71.95;21.75;;;;;;;2.90;83.22;99388.55;1730772;80;21058;-86
2022/01/11 06:00:18;;;;;;;66.57;22.05;;;;;;;2.96;83.17;99397.59;1711387;80;21070;-88
2022/01/11 06:02:52;;;;;;;60.78;18.37;;;;;;;2.95;83.10;99401.88;1694853;82;21016;-84
2022/01/11 06:05:21;;;;;;;41.35;16.27;;;;;;;2.92;83.17;99406.12;1695334;81;21225;-90
2022/01/11 06:07:50;;;;;;;39.27;14.78;;;;;;;2.96;83.18;99408.75;1777879;79;21631;-89
2022/01/11 06:10:19;;;;;;;53.13;19.12;;;;;;;2.92;83.16;99411.25;1727247;81;21116;-91
2022/01/11 06:12:48;;;;;;;68.85;22.02;;;;;;;2.92;83.49;99411.25;1719361;81;21057;-85
2022/01/11 06:15:19;;;;;;;53.05;20.17;;;;;;;2.90;83.24;99413.80;1719422;81;21009;-86
2022/01/11 06:17:47;;;;;;;46.25;17.77;;;;;;;2.90;83.40;99419.36;1710712;82;21025;-84
2022/01/11 06:20:15;;;;;;;52.70;17.20;;;;;;;2.90;83.42;99420.22;1719423;81;21017;-83
2022/01/11 06:22:43;;;;;;;49.00;18.02;;;;;;;2.91;83.24;99423.67;1698340;82;21668;-91
2022/01/11 06:25:11;;;;;;;46.98;17.40;;;;;;;2.91;83.29;99428.81;1675903;84;21557;-92
2022/01/11 06:27:40;;;;;;;46.80;17.60;;;;;;;2.89;83.06;99432.63;1706237;84;21088;-90
2022/01/11 06:30:10;;;;;;;46.08;18.17;;;;;;;2.95;83.06;99440.84;1750721;79;21054;-89
2022/01/11 06:32:38;;;;;;;36.90;14.25;;;;;;;2.89;83.00;99442.91;1764124;81;20976;-85
2022/01/11 06:35:09;;;;;;;36.40;15.88;;;;;;;2.84;83.01;99448.83;1753793;81;21025;-88
2022/01/11 06:37:39;;;;;;;32.23;13.95;;;;;;;2.80;83.18;99444.07;1707306;80;21096;-88
2022/01/11 06:40:09;;;;;;;30.72;12.53;;;;;;;2.83;83.15;99452.26;1683106;85;21096;-86
2022/01/11 06:42:36;;;;;;;30.43;13.08;;;;;;;2.81;82.76;99457.80;1685296;83;21137;-83
2022/01/11 06:45:07;;;;;;;27.60;12.28;;;;;;;2.79;82.67;99464.19;1685451;84;21029;-85
2022/01/11 06:47:34;;;;;;;25.02;11.03;;;;;;;2.79;82.76;99468.90;1694348;82;21045;-83
2022/01/11 06:50:06;;;;;;;24.70;10.65;;;;;;;2.82;82.33;99472.34;1705019;82;21160;-89
2022/01/11 06:52:46;;;;;;;28.30;12.73;;;;;;;2.83;82.33;99469.80;1697746;82;21046;-85
2022/01/11 06:55:24;;;;;;;27.50;11.05;;;;;;;2.80;82.16;99469.75;1709344;80;21039;-90
2022/01/11 06:57:52;;;;;;;27.37;11.28;;;;;;;2.81;82.10;99475.34;1746987;79;21174;-88
2022/01/11 07:00:21;;;;;;;25.97;11.03;;;;;;;2.81;81.98;99471.48;1733764;79;21172;-89
2022/01/11 07:02:51;;;;;;;23.92;10.55;;;;;;;2.79;81.65;99482.16;1643369;83;21051;-84
2022/01/11 07:05:36;;;;;;;29.75;12.90;;;;;;;2.82;81.81;99488.61;1652066;82;28313;-85
2022/01/11 07:08:06;;;;;;;22.17;9.85;;;;;;;2.95;81.73;99491.77;1719871;81;21343;-85
2022/01/11 07:10:34;;;;;;;24.95;10.13;;;;;;;2.91;81.48;99492.58;1751754;81;21114;-88
2022/01/11 07:13:02;;;;;;;22.55;9.23;;;;;;;2.90;81.32;99497.27;1716520;82;20979;-85
2022/01/11 07:15:32;;;;;;;20.88;8.65;;;;;;;2.90;81.18;99504.11;1752309;80;21028;-87
2022/01/11 07:18:06;;;;;;;23.50;10.55;;;;;;;2.87;80.68;99511.37;1696002;83;21215;-82
2022/01/11 07:20:30;;;;;;;28.67;12.73;;;;;;;2.80;80.79;99500.56;1731444;81;21106;-84
2022/01/11 07:22:58;;;;;;;25.70;9.28;;;;;;;2.83;80.95;99508.75;1717223;83;21044;-83
2022/01/11 07:25:30;;;;;;;22.95;9.55;;;;;;;2.85;81.23;99516.91;1719589;83;21025;-84
2022/01/11 07:27:59;;;;;;;27.25;10.50;;;;;;;2.78;81.13;99526.64;1731366;78;21126;-88
2022/01/11 07:30:28;;;;;;;26.27;10.10;;;;;;;2.82;80.96;99530.98;1668277;81;21166;-89
2022/01/11 07:32:56;;;;;;;24.02;9.83;;;;;;;2.81;80.95;99534.83;1683000;84;21038;-87
2022/01/11 07:35:24;;;;;;;23.00;9.93;;;;;;;2.78;80.78;99527.92;1679397;84;21547;-90
2022/01/11 07:37:56;;;;;;;24.15;9.53;;;;;;;2.75;80.87;99534.33;1676723;81;21124;-89
2022/01/11 07:40:24;;;;;;;23.20;9.33;;;;;;;2.84;81.00;99529.29;1716535;82;21065;-91
2022/01/11 07:42:54;;;;;;;21.55;8.93;;;;;;;2.81;81.17;99542.11;1717579;80;21107;-88
2022/01/11 07:45:39;;;;;;;19.45;8.48;;;;;;;2.81;80.93;99547.67;1688559;82;21067;-90
2022/01/11 07:48:07;;;;;;;21.60;8.88;;;;;;;2.84;80.93;99543.84;1697824;83;21139;-90
2022/01/11 07:50:38;;;;;;;17.82;8.18;;;;;;;2.78;80.47;99542.91;1700000;81;21645;-89
2022/01/11 07:53:06;;;;;;;26.65;9.60;;;;;;;2.82;80.28;99542.53;1706674;81;21642;-90
2022/01/11 07:55:38;;;;;;;19.87;8.75;;;;;;;2.77;80.36;99548.05;1741437;80;21080;-90
2022/01/11 07:58:06;;;;;;;23.12;8.88;;;;;;;2.82;80.51;99552.80;1720973;77;21170;-87
2022/01/11 08:00:34;;;;;;;22.13;8.68;;;;;;;2.78;80.41;99553.61;1729131;81;21056;-90
2022/01/11 08:03:02;;;;;;;16.67;8.20;;;;;;;2.81;79.79;99561.37;1709161;80;21032;-91
2022/01/11 08:05:32;;;;;;;25.52;9.15;;;;;;;2.79;80.21;99554.06;1732721;81;21217;-91
2022/01/11 08:07:59;;;;;;;19.82;7.65;;;;;;;2.84;79.87;99561.39;1737146;80;21110;-88
2022/01/11 08:10:29;;;;;;;32.83;11.85;;;;;;;2.81;79.61;99555.38;1724375;80;21184;-90
2022/01/11 08:12:57;;;;;;;19.10;7.65;;;;;;;2.86;80.04;99563.55;1765714;79;21133;-89
2022/01/11 08:15:25;;;;;;;19.90;8.50;;;;;;;2.70;79.34;99544.51;1763640;80;21074;-89
2022/01/11 08:17:54;;;;;;;23.77;9.23;;;;;;;2.87;79.42;99568.30;1739292;78;21104;-93
2022/01/11 08:20:23;;;;;;;23.45;9.08;;;;;;;2.84;79.63;99566.53;1745485;81;21085;-90
2022/01/11 08:22:54;;;;;;;23.52;9.25;;;;;;;2.91;79.88;99566.20;1662930;80;21106;-90
2022/01/11 08:25:25;;;;;;;23.85;9.53;;;;;;;2.91;79.75;99574.77;1694972;81;21101;-91
2022/01/11 08:27:53;;;;;;;22.67;8.95;;;;;;;2.93;79.71;99574.36;1638664;81;21140;-89
2022/01/11 08:30:22;;;;;;;25.30;8.58;;;;;;;2.97;79.75;99576.13;1639773;81;21191;-89
2022/01/11 08:32:52;;;;;;;24.45;9.48;;;;;;;3.00;79.99;99580.44;1743897;80;21165;-89
2022/01/11 08:35:21;;;;;;;29.98;9.85;;;;;;;3.01;79.89;99582.61;1754155;79;21141;-89
2022/01/11 08:37:51;;;;;;;23.80;9.00;;;;;;;3.01;80.02;99581.32;1679869;81;21781;-91
2022/01/11 08:40:21;;;;;;;23.42;8.78;;;;;;;2.98;79.76;99589.83;1726885;80;21103;-91
2022/01/11 08:46:02;;;;;;;24.05;10.05;;;;;;;2.96;80.03;99583.80;1653834;80;21187;-92
2022/01/11 08:48:33;;;;;;;26.62;9.83;;;;;;;2.99;80.06;99589.00;1683321;83;21190;-88
2022/01/11 08:51:03;;;;;;;25.68;10.13;;;;;;;2.97;80.29;99593.25;1696895;83;21036;-85
2022/01/11 08:53:32;;;;;;;24.57;9.53;;;;;;;2.95;80.55;99595.80;1674544;85;21117;-83
2022/01/11 08:56:02;;;;;;;25.92;10.63;;;;;;;3.02;80.33;99589.45;1700608;81;21156;-92
2022/01/11 08:58:33;;;;;;;25.75;9.73;;;;;;;2.97;80.93;99599.25;1757352;80;21142;-92
2022/01/11 09:01:00;;;;;;;23.60;9.30;;;;;;;2.99;80.74;99594.14;1695254;80;21161;-90
2022/01/11 09:03:30;;;;;;;20.23;8.98;;;;;;;2.94;80.97;99598.34;1680084;80;21167;-88
2022/01/11 09:05:59;;;;;;;20.75;8.75;;;;;;;2.90;81.29;99597.42;1690614;85;21017;-88
2022/01/11 09:08:27;;;;;;;28.17;10.38;;;;;;;2.93;81.42;99600.48;1684334;83;21176;-88
2022/01/11 09:10:54;;;;;;;26.42;8.93;;;;;;;2.91;81.25;99609.87;1696981;83;21140;-90
2022/01/11 09:13:26;;;;;;;19.37;8.85;;;;;;;2.92;81.46;99606.02;1719757;81;21567;-91
2022/01/11 09:15:54;;;;;;;25.48;9.98;;;;;;;2.95;81.56;99606.06;1699042;81;21094;-87
2022/01/11 09:18:23;;;;;;;17.10;8.23;;;;;;;3.01;81.41;99607.01;1678698;81;21035;-83
2022/01/11 09:20:51;;;;;;;19.45;8.83;;;;;;;3.08;81.08;99612.22;1678633;81;21119;-92
2022/01/11 09:23:18;;;;;;;16.55;9.05;;;;;;;3.01;80.82;99614.72;1671971;84;21028;-92
2022/01/11 09:25:47;;;;;;;20.15;7.20;;;;;;;3.02;80.25;99616.42;1708784;82;21050;-89
2022/01/11 09:28:18;;;;;;;14.45;5.67;;;;;;;3.00;80.05;99612.55;1671633;84;21223;-90
2022/01/11 09:34:04;;;;;;;15.88;6.33;;;;;;;2.89;79.49;99618.83;1712673;82;21019;-92
2022/01/11 09:36:34;;;;;;;14.68;5.30;;;;;;;2.80;79.23;99617.40;1698259;80;21185;-90
2022/01/11 09:39:16;;;;;;;13.62;5.62;;;;;;;2.78;79.18;99625.50;1689331;81;21181;31
2022/01/11 09:41:45;;;;;;;13.83;5.72;;;;;;;2.77;79.54;99623.79;1689188;80;21227;-89
2022/01/11 09:44:15;;;;;;;14.03;5.60;;;;;;;2.72;79.32;99611.30;1683927;81;21115;-89
2022/01/11 09:46:43;;;;;;;14.95;5.85;;;;;;;2.76;79.13;99615.62;1711291;82;21074;-82
2022/01/11 09:49:12;;;;;;;15.32;6.03;;;;;;;2.74;79.26;99622.02;1712957;82;21052;-91
2022/01/11 09:51:40;;;;;;;19.42;6.47;;;;;;;2.74;79.28;99624.59;1704515;81;21096;-85
2022/01/11 09:54:08;;;;;;;15.90;6.30;;;;;;;2.79;79.48;99630.67;1648502;81;21177;-87
2022/01/11 09:56:39;;;;;;;15.75;6.92;;;;;;;2.83;79.44;99622.59;1687913;83;21180;-84
2022/01/11 09:59:09;;;;;;;16.27;6.42;;;;;;;2.86;79.01;99623.91;1717095;81;21114;-88
2022/01/11 10:01:38;;;;;;;13.30;5.87;;;;;;;2.83;79.03;99617.45;1735521;80;21050;-85
2022/01/11 10:04:16;;;;;;;13.40;5.72;;;;;;;2.91;79.35;99627.41;1740126;80;21014;-83
2022/01/11 10:06:59;;;;;;;16.27;6.17;;;;;;;2.96;78.73;99630.92;1726927;80;21099;-85
2022/01/11 10:09:31;;;;;;;13.65;6.53;;;;;;;2.92;78.92;99621.42;1680165;81;21132;-90
2022/01/11 10:12:08;;;;;;;15.15;6.17;;;;;;;3.07;79.03;99625.07;1664480;82;20999;31
2022/01/11 10:14:38;;;;;;;16.20;7.15;;;;;;;3.12;78.53;99625.98;1687001;84;21522;-91
2022/01/11 10:17:21;;;;;;;20.57;7.87;;;;;;;3.07;78.94;99623.78;1696571;81;21087;-91
2022/01/11 10:20:08;;;;;;;17.80;6.55;;;;;;;3.16;78.47;99627.74;1697461;79;21153;-89
2022/01/11 10:23:00;;;;;;;19.10;6.85;;;;;;;3.26;78.52;99621.88;1688637;81;21037;-89
2022/01/11 10:25:33;;;;;;;16.07;7.28;;;;;;;3.27;77.92;99616.34;1657214;82;21114;-88
2022/01/11 10:28:05;;;;;;;15.28;6.83;;;;;;;3.27;78.03;99618.48;1763562;80;21116;-84
2022/01/11 10:30:35;;;;;;;17.27;6.50;;;;;;;3.26;77.94;99620.59;1736398;81;21152;-91
2022/01/11 10:33:09;;;;;;;17.37;7.10;;;;;;;3.22;78.05;99621.39;1731068;80;21129;-89
2022/01/11 10:35:46;;;;;;;16.90;7.03;;;;;;;3.22;78.66;99629.11;1733827;80;21210;-88
2022/01/11 10:38:29;;;;;;;19.62;7.85;;;;;;;3.23;78.61;99632.13;1704280;82;21063;-84
2022/01/11 10:40:59;;;;;;;20.05;7.45;;;;;;;3.27;78.65;99636.47;1722821;81;21052;-85
2022/01/11 10:43:28;;;;;;;16.62;7.25;;;;;;;3.27;78.65;99637.75;1718538;81;21063;-85
2022/01/11 10:45:59;;;;;;;16.95;7.53;;;;;;;3.24;78.47;99645.41;1718664;81;21071;-85
2022/01/11 10:48:28;;;;;;;18.67;7.87;;;;;;;3.23;78.67;99648.84;1677627;85;21144;-87
2022/01/11 10:51:02;;;;;;;16.93;6.97;;;;;;;3.20;78.86;99641.07;1652724;85;21117;-85
2022/01/11 10:56:40;;;;;;;;;;;;;;;3.20;78.99;99652.63;1732173;82;21152;-84
2022/01/11 10:59:10;;;;;;;16.80;7.20;;;;;;;3.07;78.94;99645.20;1700701;84;20141;-85
2022/01/11 11:01:43;;;;;;;19.12;8.60;;;;;;;3.12;78.90;99646.13;1726225;81;21189;-85
2022/01/11 11:04:32;;;;;;;26.02;8.60;;;;;;;3.12;79.31;99640.11;1704832;83;20996;-86
2022/01/11 11:07:13;;;;;;;20.27;7.25;;;;;;;3.20;79.00;99633.36;1700164;81;21148;-88
2022/01/11 11:09:47;;;;;;;16.40;7.90;;;;;;;3.15;79.15;99636.31;1696614;80;21165;-89
2022/01/11 11:12:19;;;;;;;26.05;9.73;;;;;;;3.15;79.37;99629.45;1708626;81;21145;-93
2022/01/11 11:14:56;;;;;;;24.05;9.63;;;;;;;3.27;79.41;99637.75;1685186;81;21709;-90
2022/01/11 11:17:30;;;;;;;17.80;7.80;;;;;;;3.27;79.22;99630.05;1725296;80;21141;-89
2022/01/11 11:20:05;;;;;;;20.02;8.98;;;;;;;3.31;79.00;99629.23;1702700;82;21158;-91
2022/01/11 11:22:33;;;;;;;21.07;8.17;;;;;;;3.29;79.18;99629.64;1664881;80;21142;-91
2022/01/11 11:25:01;;;;;;;21.95;8.68;;;;;;;3.34;78.76;99633.14;1668614;84;21352;-91
2022/01/11 11:27:31;;;;;;;20.08;8.08;;;;;;;3.38;78.84;99616.92;1665477;80;21063;-89
2022/01/11 11:29:59;;;;;;;17.87;7.58;;;;;;;3.42;78.61;99622.08;1666873;82;21122;-91
2022/01/11 11:32:28;;;;;;;17.32;7.55;;;;;;;3.29;78.29;99610.80;1636087;84;21260;-90
2022/01/11 11:34:55;;;;;;;27.13;8.25;;;;;;;3.29;78.53;99626.22;1645626;86;21103;-89
2022/01/11 11:37:31;;;;;;;18.17;7.70;;;;;;;3.28;78.23;99633.47;1653011;86;21126;-90
2022/01/11 11:40:04;;;;;;;17.92;7.53;;;;;;;3.30;77.79;99630.09;1649411;85;21091;-82
2022/01/11 11:42:33;;;;;;;16.37;6.65;;;;;;;3.26;77.54;99632.58;1667946;84;21116;-90
2022/01/11 11:45:04;;;;;;;15.53;6.62;;;;;;;3.24;77.63;99638.98;1668271;83;21040;-85
2022/01/11 11:47:35;;;;;;;17.50;7.85;;;;;;;3.21;77.74;99635.53;1661708;83;21150;-90
2022/01/11 11:50:06;;;;;;;16.50;6.17;;;;;;;3.24;77.37;99636.41;1682216;82;21215;-92
2022/01/11 11:52:47;;;;;;;15.48;7.17;;;;;;;3.27;77.39;99636.47;1630142;82;21137;-92